sensor_id;sensor_type;location;lat;lon;timestamp;P1;durP1;ratioP1;P2;durP2;ratioP2
71475;SDS011;59286;59.274;17.974;2022-12-07T00:01:06;10.75;;;5.05;;
71475;SDS011;59286;59.274;17.974;2022-12-07T00:03:38;14.77;;;5.72;;
71475;SDS011;59286;59.274;17.974;2022-12-07T00:06:05;11.52;;;5.22;;
71475;SDS011;59286;59.274;17.974;2022-12-07T00:08:32;9.85;;;5.68;;
71475;SDS011;59286;59.274;17.974;2022-12-07T00:11:02;11.43;;;5.30;;
71475;SDS011;59286;59.274;17.974;2022-12-07T00:13:29;11.10;;;4.55;;
71475;SDS011;59286;59.274;17.974;2022-12-07T00:15:55;12.50;;;5.38;;
71475;SDS011;59286;59.274;17.974;2022-12-07T00:18:20;9.13;;;4.72;;
71475;SDS011;59286;59.274;17.974;2022-12-07T00:20:45;11.15;;;4.35;;
71475;SDS011;59286;59.274;17.974;2022-12-07T00:23:11;7.38;;;4.80;;
71475;SDS011;59286;59.274;17.974;2022-12-07T00:25:36;11.15;;;5.25;;
71475;SDS011;59286;59.274;17.974;2022-12-07T00:28:01;8.77;;;4.68;;
71475;SDS011;59286;59.274;17.974;2022-12-07T00:30:27;10.18;;;4.55;;
71475;SDS011;59286;59.274;17.974;2022-12-07T00:32:52;9.55;;;3.90;;
71475;SDS011;59286;59.274;17.974;2022-12-07T00:35:17;9.23;;;3.72;;
71475;SDS011;59286;59.274;17.974;2022-12-07T00:37:42;9.25;;;3.97;;
71475;SDS011;59286;59.274;17.974;2022-12-07T00:40:08;10.23;;;3.92;;
71475;SDS011;59286;59.274;17.974;2022-12-07T00:42:34;9.90;;;3.90;;
71475;SDS011;59286;59.274;17.974;2022-12-07T00:44:59;6.55;;;3.50;;
71475;SDS011;59286;59.274;17.974;2022-12-07T00:47:24;12.07;;;5.03;;
71475;SDS011;59286;59.274;17.974;2022-12-07T00:49:50;16.63;;;4.53;;
71475;SDS011;59286;59.274;17.974;2022-12-07T00:52:15;9.23;;;4.13;;
71475;SDS011;59286;59.274;17.974;2022-12-07T00:54:40;7.75;;;3.63;;
71475;SDS011;59286;59.274;17.974;2022-12-07T00:57:06;12.02;;;3.63;;
71475;SDS011;59286;59.274;17.974;2022-12-07T00:59:31;10.10;;;4.30;;
71475;SDS011;59286;59.274;17.974;2022-12-07T01:01:57;12.27;;;4.50;;
71475;SDS011;59286;59.274;17.974;2022-12-07T01:04:22;9.02;;;4.15;;
71475;SDS011;59286;59.274;17.974;2022-12-07T01:06:47;11.18;;;4.43;;
71475;SDS011;59286;59.274;17.974;2022-12-07T01:09:13;4.95;;;3.13;;
71475;SDS011;59286;59.274;17.974;2022-12-07T01:11:38;6.82;;;3.60;;
71475;SDS011;59286;59.274;17.974;2022-12-07T01:14:03;5.45;;;3.05;;
71475;SDS011;59286;59.274;17.974;2022-12-07T01:16:30;8.13;;;3.58;;
71475;SDS011;59286;59.274;17.974;2022-12-07T01:18:57;5.55;;;3.25;;
71475;SDS011;59286;59.274;17.974;2022-12-07T01:21:28;5.47;;;3.92;;
71475;SDS011;59286;59.274;17.974;2022-12-07T01:23:56;10.32;;;3.53;;
71475;SDS011;59286;59.274;17.974;2022-12-07T01:26:23;8.23;;;3.30;;
71475;SDS011;59286;59.274;17.974;2022-12-07T01:28:49;7.45;;;3.47;;
71475;SDS011;59286;59.274;17.974;2022-12-07T01:31:19;9.57;;;3.08;;
71475;SDS011;59286;59.274;17.974;2022-12-07T01:33:50;10.30;;;3.50;;
71475;SDS011;59286;59.274;17.974;2022-12-07T01:38:50;8.50;;;3.35;;
71475;SDS011;59286;59.274;17.974;2022-12-07T01:41:19;10.23;;;3.78;;
71475;SDS011;59286;59.274;17.974;2022-12-07T01:46:38;7.13;;;3.20;;
71475;SDS011;59286;59.274;17.974;2022-12-07T01:49:04;9.77;;;3.97;;
71475;SDS011;59286;59.274;17.974;2022-12-07T01:51:33;6.63;;;3.83;;
71475;SDS011;59286;59.274;17.974;2022-12-07T01:53:59;8.15;;;3.47;;
71475;SDS011;59286;59.274;17.974;2022-12-07T01:56:26;9.30;;;3.60;;
71475;SDS011;59286;59.274;17.974;2022-12-07T01:58:53;6.95;;;3.63;;
71475;SDS011;59286;59.274;17.974;2022-12-07T02:01:22;7.70;;;3.60;;
71475;SDS011;59286;59.274;17.974;2022-12-07T02:03:50;7.75;;;3.40;;
71475;SDS011;59286;59.274;17.974;2022-12-07T02:06:17;7.15;;;3.78;;
71475;SDS011;59286;59.274;17.974;2022-12-07T02:08:45;9.38;;;4.18;;
71475;SDS011;59286;59.274;17.974;2022-12-07T02:11:12;7.47;;;3.63;;
71475;SDS011;59286;59.274;17.974;2022-12-07T02:13:38;7.35;;;3.70;;
71475;SDS011;59286;59.274;17.974;2022-12-07T02:16:12;9.27;;;3.80;;
71475;SDS011;59286;59.274;17.974;2022-12-07T02:27:06;6.60;;;3.40;;
71475;SDS011;59286;59.274;17.974;2022-12-07T02:30:10;5.47;;;3.22;;
71475;SDS011;59286;59.274;17.974;2022-12-07T02:38:08;8.18;;;3.50;;
71475;SDS011;59286;59.274;17.974;2022-12-07T02:43:26;7.40;;;3.50;;
71475;SDS011;59286;59.274;17.974;2022-12-07T02:45:56;6.32;;;3.58;;
71475;SDS011;59286;59.274;17.974;2022-12-07T02:48:26;8.15;;;3.67;;
71475;SDS011;59286;59.274;17.974;2022-12-07T02:50:53;7.28;;;3.22;;
71475;SDS011;59286;59.274;17.974;2022-12-07T02:56:18;9.65;;;3.55;;
71475;SDS011;59286;59.274;17.974;2022-12-07T03:15:55;7.25;;;3.85;;
71475;SDS011;59286;59.274;17.974;2022-12-07T03:18:22;8.05;;;3.50;;
71475;SDS011;59286;59.274;17.974;2022-12-07T03:20:53;11.20;;;3.50;;
71475;SDS011;59286;59.274;17.974;2022-12-07T03:23:21;9.82;;;3.72;;
71475;SDS011;59286;59.274;17.974;2022-12-07T03:25:51;7.78;;;4.18;;
71475;SDS011;59286;59.274;17.974;2022-12-07T03:28:21;9.20;;;3.60;;
71475;SDS011;59286;59.274;17.974;2022-12-07T03:30:54;8.98;;;3.85;;
71475;SDS011;59286;59.274;17.974;2022-12-07T03:33:31;7.70;;;4.38;;
71475;SDS011;59286;59.274;17.974;2022-12-07T03:36:08;9.07;;;4.68;;
71475;SDS011;59286;59.274;17.974;2022-12-07T03:38:47;10.30;;;4.22;;
71475;SDS011;59286;59.274;17.974;2022-12-07T03:41:19;12.85;;;4.70;;
71475;SDS011;59286;59.274;17.974;2022-12-07T03:43:53;10.63;;;4.07;;
71475;SDS011;59286;59.274;17.974;2022-12-07T03:49:22;6.80;;;3.40;;
71475;SDS011;59286;59.274;17.974;2022-12-07T03:54:59;7.85;;;3.08;;
71475;SDS011;59286;59.274;17.974;2022-12-07T03:57:30;5.95;;;3.17;;
71475;SDS011;59286;59.274;17.974;2022-12-07T03:59:58;6.43;;;2.95;;
71475;SDS011;59286;59.274;17.974;2022-12-07T04:02:25;7.75;;;3.20;;
71475;SDS011;59286;59.274;17.974;2022-12-07T04:04:52;7.40;;;2.97;;
71475;SDS011;59286;59.274;17.974;2022-12-07T04:07:18;9.30;;;3.00;;
71475;SDS011;59286;59.274;17.974;2022-12-07T04:09:43;5.20;;;2.83;;
71475;SDS011;59286;59.274;17.974;2022-12-07T04:12:08;5.63;;;2.70;;
71475;SDS011;59286;59.274;17.974;2022-12-07T04:14:34;5.47;;;3.00;;
71475;SDS011;59286;59.274;17.974;2022-12-07T04:16:59;7.05;;;2.97;;
71475;SDS011;59286;59.274;17.974;2022-12-07T04:19:26;6.97;;;3.17;;
71475;SDS011;59286;59.274;17.974;2022-12-07T04:21:56;6.60;;;3.10;;
71475;SDS011;59286;59.274;17.974;2022-12-07T04:24:24;10.35;;;3.00;;
71475;SDS011;59286;59.274;17.974;2022-12-07T04:26:50;6.28;;;2.75;;
71475;SDS011;59286;59.274;17.974;2022-12-07T04:29:16;7.53;;;3.17;;
71475;SDS011;59286;59.274;17.974;2022-12-07T04:31:42;12.88;;;3.30;;
71475;SDS011;59286;59.274;17.974;2022-12-07T04:34:08;7.22;;;3.28;;
71475;SDS011;59286;59.274;17.974;2022-12-07T04:36:34;9.07;;;3.20;;
71475;SDS011;59286;59.274;17.974;2022-12-07T04:39:00;8.85;;;3.40;;
71475;SDS011;59286;59.274;17.974;2022-12-07T04:41:26;6.80;;;3.20;;
71475;SDS011;59286;59.274;17.974;2022-12-07T04:46:20;7.15;;;3.03;;
71475;SDS011;59286;59.274;17.974;2022-12-07T04:48:45;9.75;;;2.70;;
71475;SDS011;59286;59.274;17.974;2022-12-07T04:51:11;5.32;;;2.67;;
71475;SDS011;59286;59.274;17.974;2022-12-07T04:53:36;7.38;;;3.80;;
71475;SDS011;59286;59.274;17.974;2022-12-07T04:56:01;6.35;;;2.67;;
71475;SDS011;59286;59.274;17.974;2022-12-07T04:58:27;4.30;;;2.38;;
71475;SDS011;59286;59.274;17.974;2022-12-07T05:00:55;10.50;;;2.90;;
71475;SDS011;59286;59.274;17.974;2022-12-07T05:03:20;7.18;;;2.58;;
71475;SDS011;59286;59.274;17.974;2022-12-07T05:05:46;7.93;;;2.70;;
71475;SDS011;59286;59.274;17.974;2022-12-07T05:08:11;10.32;;;2.88;;
71475;SDS011;59286;59.274;17.974;2022-12-07T05:10:36;5.90;;;2.60;;
71475;SDS011;59286;59.274;17.974;2022-12-07T05:13:02;6.05;;;2.70;;
71475;SDS011;59286;59.274;17.974;2022-12-07T05:15:27;8.18;;;2.70;;
71475;SDS011;59286;59.274;17.974;2022-12-07T05:17:52;5.68;;;2.47;;
71475;SDS011;59286;59.274;17.974;2022-12-07T05:20:18;7.43;;;2.40;;
71475;SDS011;59286;59.274;17.974;2022-12-07T05:22:43;7.82;;;2.75;;
71475;SDS011;59286;59.274;17.974;2022-12-07T05:25:08;7.20;;;2.88;;
71475;SDS011;59286;59.274;17.974;2022-12-07T05:27:34;5.97;;;2.75;;
71475;SDS011;59286;59.274;17.974;2022-12-07T05:29:59;5.70;;;2.40;;
71475;SDS011;59286;59.274;17.974;2022-12-07T05:32:24;5.20;;;2.35;;
71475;SDS011;59286;59.274;17.974;2022-12-07T05:34:50;6.18;;;2.60;;
71475;SDS011;59286;59.274;17.974;2022-12-07T05:37:15;10.73;;;2.70;;
71475;SDS011;59286;59.274;17.974;2022-12-07T05:39:40;7.07;;;2.60;;
71475;SDS011;59286;59.274;17.974;2022-12-07T05:42:08;10.77;;;2.65;;
71475;SDS011;59286;59.274;17.974;2022-12-07T05:44:41;9.93;;;2.55;;
71475;SDS011;59286;59.274;17.974;2022-12-07T05:47:09;5.90;;;2.33;;
71475;SDS011;59286;59.274;17.974;2022-12-07T05:49:35;6.35;;;2.13;;
71475;SDS011;59286;59.274;17.974;2022-12-07T05:52:01;6.95;;;2.05;;
71475;SDS011;59286;59.274;17.974;2022-12-07T05:54:26;10.32;;;2.05;;
71475;SDS011;59286;59.274;17.974;2022-12-07T05:56:52;7.70;;;2.50;;
71475;SDS011;59286;59.274;17.974;2022-12-07T05:59:17;5.25;;;1.90;;
71475;SDS011;59286;59.274;17.974;2022-12-07T06:01:58;7.60;;;2.55;;
71475;SDS011;59286;59.274;17.974;2022-12-07T06:04:27;9.30;;;2.85;;
71475;SDS011;59286;59.274;17.974;2022-12-07T06:06:54;6.88;;;3.35;;
71475;SDS011;59286;59.274;17.974;2022-12-07T06:09:20;10.30;;;4.60;;
71475;SDS011;59286;59.274;17.974;2022-12-07T06:11:46;6.43;;;3.38;;
71475;SDS011;59286;59.274;17.974;2022-12-07T06:14:31;6.95;;;3.20;;
71475;SDS011;59286;59.274;17.974;2022-12-07T06:16:56;6.75;;;2.70;;
71475;SDS011;59286;59.274;17.974;2022-12-07T06:19:22;8.52;;;2.95;;
71475;SDS011;59286;59.274;17.974;2022-12-07T06:21:47;5.18;;;2.80;;
71475;SDS011;59286;59.274;17.974;2022-12-07T06:24:13;5.75;;;2.70;;
71475;SDS011;59286;59.274;17.974;2022-12-07T06:26:39;4.53;;;2.60;;
71475;SDS011;59286;59.274;17.974;2022-12-07T06:29:04;9.82;;;3.28;;
71475;SDS011;59286;59.274;17.974;2022-12-07T06:31:30;6.05;;;2.72;;
71475;SDS011;59286;59.274;17.974;2022-12-07T06:34:02;6.50;;;3.20;;
71475;SDS011;59286;59.274;17.974;2022-12-07T06:36:29;5.20;;;3.30;;
71475;SDS011;59286;59.274;17.974;2022-12-07T06:38:55;7.72;;;4.18;;
71475;SDS011;59286;59.274;17.974;2022-12-07T06:41:21;9.52;;;3.45;;
71475;SDS011;59286;59.274;17.974;2022-12-07T06:43:47;8.25;;;3.78;;
71475;SDS011;59286;59.274;17.974;2022-12-07T06:46:13;9.15;;;4.15;;
71475;SDS011;59286;59.274;17.974;2022-12-07T06:48:39;6.53;;;3.10;;
71475;SDS011;59286;59.274;17.974;2022-12-07T06:51:04;6.00;;;3.17;;
71475;SDS011;59286;59.274;17.974;2022-12-07T06:53:30;8.02;;;2.85;;
71475;SDS011;59286;59.274;17.974;2022-12-07T06:55:55;4.53;;;2.50;;
71475;SDS011;59286;59.274;17.974;2022-12-07T06:58:20;6.75;;;2.97;;
71475;SDS011;59286;59.274;17.974;2022-12-07T07:00:47;5.07;;;2.80;;
71475;SDS011;59286;59.274;17.974;2022-12-07T07:03:14;6.50;;;3.30;;
71475;SDS011;59286;59.274;17.974;2022-12-07T07:05:39;8.88;;;3.45;;
71475;SDS011;59286;59.274;17.974;2022-12-07T07:08:05;7.68;;;3.50;;
71475;SDS011;59286;59.274;17.974;2022-12-07T07:10:30;10.77;;;3.33;;
71475;SDS011;59286;59.274;17.974;2022-12-07T07:12:56;8.10;;;3.63;;
71475;SDS011;59286;59.274;17.974;2022-12-07T07:15:21;8.90;;;3.25;;
71475;SDS011;59286;59.274;17.974;2022-12-07T07:17:47;7.47;;;3.25;;
71475;SDS011;59286;59.274;17.974;2022-12-07T07:20:12;10.40;;;4.60;;
71475;SDS011;59286;59.274;17.974;2022-12-07T07:22:37;8.27;;;3.30;;
71475;SDS011;59286;59.274;17.974;2022-12-07T07:25:03;6.43;;;2.70;;
71475;SDS011;59286;59.274;17.974;2022-12-07T07:27:28;6.20;;;2.75;;
71475;SDS011;59286;59.274;17.974;2022-12-07T07:29:54;11.52;;;3.30;;
71475;SDS011;59286;59.274;17.974;2022-12-07T07:32:19;9.77;;;2.45;;
71475;SDS011;59286;59.274;17.974;2022-12-07T07:34:46;9.13;;;3.13;;
71475;SDS011;59286;59.274;17.974;2022-12-07T07:37:11;4.70;;;2.38;;
71475;SDS011;59286;59.274;17.974;2022-12-07T07:39:37;8.80;;;2.38;;
71475;SDS011;59286;59.274;17.974;2022-12-07T07:42:03;4.70;;;2.47;;
71475;SDS011;59286;59.274;17.974;2022-12-07T07:44:28;4.35;;;2.38;;
71475;SDS011;59286;59.274;17.974;2022-12-07T07:46:54;5.10;;;2.78;;
71475;SDS011;59286;59.274;17.974;2022-12-07T07:49:19;6.63;;;2.40;;
71475;SDS011;59286;59.274;17.974;2022-12-07T07:51:45;4.35;;;2.47;;
71475;SDS011;59286;59.274;17.974;2022-12-07T07:54:10;4.57;;;1.90;;
71475;SDS011;59286;59.274;17.974;2022-12-07T07:56:36;4.35;;;2.00;;
71475;SDS011;59286;59.274;17.974;2022-12-07T07:59:01;3.83;;;2.30;;
71475;SDS011;59286;59.274;17.974;2022-12-07T08:01:26;6.18;;;2.33;;
71475;SDS011;59286;59.274;17.974;2022-12-07T08:03:52;6.50;;;2.30;;
71475;SDS011;59286;59.274;17.974;2022-12-07T08:06:17;5.78;;;2.20;;
71475;SDS011;59286;59.274;17.974;2022-12-07T08:08:42;8.50;;;2.30;;
71475;SDS011;59286;59.274;17.974;2022-12-07T08:11:08;5.40;;;2.40;;
71475;SDS011;59286;59.274;17.974;2022-12-07T08:13:34;7.50;;;2.63;;
71475;SDS011;59286;59.274;17.974;2022-12-07T08:16:07;6.15;;;2.70;;
71475;SDS011;59286;59.274;17.974;2022-12-07T08:18:37;10.95;;;2.58;;
71475;SDS011;59286;59.274;17.974;2022-12-07T08:21:05;5.70;;;2.53;;
71475;SDS011;59286;59.274;17.974;2022-12-07T08:23:31;6.95;;;2.70;;
71475;SDS011;59286;59.274;17.974;2022-12-07T08:26:01;6.70;;;2.25;;
71475;SDS011;59286;59.274;17.974;2022-12-07T08:28:31;7.40;;;2.78;;
71475;SDS011;59286;59.274;17.974;2022-12-07T08:31:04;8.43;;;3.10;;
71475;SDS011;59286;59.274;17.974;2022-12-07T08:33:31;10.85;;;3.20;;
71475;SDS011;59286;59.274;17.974;2022-12-07T08:36:04;8.77;;;2.70;;
71475;SDS011;59286;59.274;17.974;2022-12-07T08:38:33;7.55;;;2.63;;
71475;SDS011;59286;59.274;17.974;2022-12-07T08:40:59;7.38;;;2.60;;
71475;SDS011;59286;59.274;17.974;2022-12-07T08:43:25;8.40;;;2.42;;
71475;SDS011;59286;59.274;17.974;2022-12-07T08:46:34;8.70;;;2.28;;
71475;SDS011;59286;59.274;17.974;2022-12-07T08:48:40;6.80;;;2.63;;
71475;SDS011;59286;59.274;17.974;2022-12-07T08:51:11;8.27;;;3.22;;
71475;SDS011;59286;59.274;17.974;2022-12-07T08:53:37;4.22;;;1.95;;
71475;SDS011;59286;59.274;17.974;2022-12-07T08:56:04;9.90;;;2.30;;
71475;SDS011;59286;59.274;17.974;2022-12-07T08:58:31;6.53;;;2.60;;
71475;SDS011;59286;59.274;17.974;2022-12-07T09:00:57;8.10;;;2.53;;
71475;SDS011;59286;59.274;17.974;2022-12-07T09:03:22;5.10;;;2.28;;
71475;SDS011;59286;59.274;17.974;2022-12-07T09:05:48;5.18;;;2.30;;
71475;SDS011;59286;59.274;17.974;2022-12-07T09:08:13;8.60;;;2.80;;
71475;SDS011;59286;59.274;17.974;2022-12-07T09:10:39;7.60;;;2.40;;
71475;SDS011;59286;59.274;17.974;2022-12-07T09:13:04;8.80;;;3.13;;
71475;SDS011;59286;59.274;17.974;2022-12-07T09:15:30;7.38;;;2.80;;
71475;SDS011;59286;59.274;17.974;2022-12-07T09:17:56;15.30;;;2.78;;
71475;SDS011;59286;59.274;17.974;2022-12-07T09:20:21;8.48;;;2.80;;
71475;SDS011;59286;59.274;17.974;2022-12-07T09:22:47;6.15;;;2.72;;
71475;SDS011;59286;59.274;17.974;2022-12-07T09:25:12;11.00;;;3.20;;
71475;SDS011;59286;59.274;17.974;2022-12-07T09:27:37;9.73;;;3.55;;
71475;SDS011;59286;59.274;17.974;2022-12-07T09:30:03;9.25;;;3.40;;
71475;SDS011;59286;59.274;17.974;2022-12-07T09:32:30;7.53;;;3.00;;
71475;SDS011;59286;59.274;17.974;2022-12-07T09:34:55;7.32;;;2.80;;
71475;SDS011;59286;59.274;17.974;2022-12-07T09:37:21;7.13;;;3.10;;
71475;SDS011;59286;59.274;17.974;2022-12-07T09:39:46;8.60;;;2.55;;
71475;SDS011;59286;59.274;17.974;2022-12-07T09:42:18;6.15;;;2.63;;
71475;SDS011;59286;59.274;17.974;2022-12-07T09:44:50;5.07;;;2.70;;
71475;SDS011;59286;59.274;17.974;2022-12-07T09:47:15;4.53;;;2.38;;
71475;SDS011;59286;59.274;17.974;2022-12-07T09:49:40;7.55;;;2.72;;
71475;SDS011;59286;59.274;17.974;2022-12-07T09:54:35;4.90;;;2.30;;
71475;SDS011;59286;59.274;17.974;2022-12-07T09:57:06;9.13;;;2.78;;
71475;SDS011;59286;59.274;17.974;2022-12-07T09:59:33;9.57;;;2.63;;
71475;SDS011;59286;59.274;17.974;2022-12-07T10:02:02;9.63;;;2.35;;
71475;SDS011;59286;59.274;17.974;2022-12-07T10:04:48;6.65;;;2.25;;
71475;SDS011;59286;59.274;17.974;2022-12-07T10:07:14;5.97;;;2.70;;
71475;SDS011;59286;59.274;17.974;2022-12-07T10:09:39;7.00;;;2.60;;
71475;SDS011;59286;59.274;17.974;2022-12-07T10:14:34;7.47;;;1.90;;
71475;SDS011;59286;59.274;17.974;2022-12-07T10:17:02;4.55;;;1.90;;
71475;SDS011;59286;59.274;17.974;2022-12-07T10:23:18;8.35;;;2.15;;
71475;SDS011;59286;59.274;17.974;2022-12-07T10:25:41;7.63;;;2.10;;
71475;SDS011;59286;59.274;17.974;2022-12-07T10:30:33;6.40;;;1.90;;
71475;SDS011;59286;59.274;17.974;2022-12-07T10:36:23;5.15;;;1.80;;
71475;SDS011;59286;59.274;17.974;2022-12-07T10:39:02;4.07;;;1.95;;
71475;SDS011;59286;59.274;17.974;2022-12-07T10:41:28;5.10;;;1.90;;
71475;SDS011;59286;59.274;17.974;2022-12-07T10:43:55;4.03;;;1.90;;
71475;SDS011;59286;59.274;17.974;2022-12-07T10:46:26;5.95;;;1.83;;
71475;SDS011;59286;59.274;17.974;2022-12-07T11:06:23;7.03;;;1.80;;
71475;SDS011;59286;59.274;17.974;2022-12-07T11:14:40;5.45;;;1.88;;
71475;SDS011;59286;59.274;17.974;2022-12-07T11:17:14;5.93;;;1.83;;
71475;SDS011;59286;59.274;17.974;2022-12-07T11:25:25;10.95;;;2.10;;
71475;SDS011;59286;59.274;17.974;2022-12-07T11:30:49;4.10;;;1.73;;
71475;SDS011;59286;59.274;17.974;2022-12-07T11:33:43;6.75;;;1.83;;
71475;SDS011;59286;59.274;17.974;2022-12-07T11:39:11;4.63;;;2.17;;
71475;SDS011;59286;59.274;17.974;2022-12-07T11:41:40;6.00;;;2.28;;
71475;SDS011;59286;59.274;17.974;2022-12-07T11:47:08;4.85;;;1.95;;
71475;SDS011;59286;59.274;17.974;2022-12-07T11:52:32;7.57;;;2.40;;
71475;SDS011;59286;59.274;17.974;2022-12-07T11:55:05;4.57;;;2.13;;
71475;SDS011;59286;59.274;17.974;2022-12-07T11:57:44;7.00;;;2.40;;
71475;SDS011;59286;59.274;17.974;2022-12-07T12:00:15;6.05;;;2.47;;
71475;SDS011;59286;59.274;17.974;2022-12-07T12:02:44;5.88;;;2.35;;
71475;SDS011;59286;59.274;17.974;2022-12-07T12:05:47;4.82;;;2.08;;
71475;SDS011;59286;59.274;17.974;2022-12-07T12:08:22;4.35;;;2.30;;
71475;SDS011;59286;59.274;17.974;2022-12-07T12:11:06;8.77;;;2.35;;
71475;SDS011;59286;59.274;17.974;2022-12-07T12:14:10;5.93;;;2.45;;
71475;SDS011;59286;59.274;17.974;2022-12-07T12:22:46;6.75;;;1.83;;
71475;SDS011;59286;59.274;17.974;2022-12-07T12:25:27;3.50;;;1.80;;
71475;SDS011;59286;59.274;17.974;2022-12-07T12:27:56;3.40;;;1.80;;
71475;SDS011;59286;59.274;17.974;2022-12-07T12:32:49;4.57;;;1.92;;
71475;SDS011;59286;59.274;17.974;2022-12-07T12:35:29;3.45;;;1.83;;
71475;SDS011;59286;59.274;17.974;2022-12-07T12:40:58;8.80;;;2.30;;
71475;SDS011;59286;59.274;17.974;2022-12-07T12:48:54;6.45;;;2.35;;
71475;SDS011;59286;59.274;17.974;2022-12-07T12:51:40;4.47;;;1.90;;
71475;SDS011;59286;59.274;17.974;2022-12-07T12:54:12;5.32;;;1.83;;
71475;SDS011;59286;59.274;17.974;2022-12-07T13:05:03;5.20;;;2.00;;
71475;SDS011;59286;59.274;17.974;2022-12-07T13:15:46;4.55;;;1.90;;
71475;SDS011;59286;59.274;17.974;2022-12-07T13:31:46;3.95;;;1.70;;
71475;SDS011;59286;59.274;17.974;2022-12-07T13:34:35;5.22;;;1.80;;
71475;SDS011;59286;59.274;17.974;2022-12-07T13:37:04;5.95;;;2.10;;
71475;SDS011;59286;59.274;17.974;2022-12-07T13:39:44;8.35;;;2.05;;
71475;SDS011;59286;59.274;17.974;2022-12-07T13:45:22;5.63;;;1.83;;
71475;SDS011;59286;59.274;17.974;2022-12-07T13:48:14;6.20;;;2.13;;
71475;SDS011;59286;59.274;17.974;2022-12-07T13:50:47;5.18;;;2.30;;
71475;SDS011;59286;59.274;17.974;2022-12-07T13:53:18;4.55;;;1.90;;
71475;SDS011;59286;59.274;17.974;2022-12-07T13:55:46;4.38;;;1.75;;
71475;SDS011;59286;59.274;17.974;2022-12-07T13:58:12;7.75;;;2.25;;
71475;SDS011;59286;59.274;17.974;2022-12-07T14:00:39;5.57;;;1.98;;
71475;SDS011;59286;59.274;17.974;2022-12-07T14:05:37;4.38;;;1.92;;
71475;SDS011;59286;59.274;17.974;2022-12-07T14:08:24;3.75;;;1.77;;
71475;SDS011;59286;59.274;17.974;2022-12-07T14:13:31;6.63;;;1.65;;
71475;SDS011;59286;59.274;17.974;2022-12-07T14:16:01;5.60;;;1.60;;
71475;SDS011;59286;59.274;17.974;2022-12-07T14:18:29;5.20;;;1.80;;
71475;SDS011;59286;59.274;17.974;2022-12-07T14:21:05;4.82;;;1.33;;
71475;SDS011;59286;59.274;17.974;2022-12-07T14:23:39;6.05;;;1.48;;
71475;SDS011;59286;59.274;17.974;2022-12-07T14:26:15;3.70;;;1.60;;
71475;SDS011;59286;59.274;17.974;2022-12-07T14:28:44;8.65;;;1.83;;
71475;SDS011;59286;59.274;17.974;2022-12-07T14:33:37;9.95;;;2.20;;
71475;SDS011;59286;59.274;17.974;2022-12-07T14:36:03;7.32;;;2.50;;
71475;SDS011;59286;59.274;17.974;2022-12-07T14:38:29;6.13;;;2.20;;
71475;SDS011;59286;59.274;17.974;2022-12-07T14:40:54;8.32;;;2.30;;
71475;SDS011;59286;59.274;17.974;2022-12-07T14:43:40;10.05;;;2.22;;
71475;SDS011;59286;59.274;17.974;2022-12-07T14:46:06;11.93;;;2.25;;
71475;SDS011;59286;59.274;17.974;2022-12-07T14:48:34;8.15;;;2.00;;
71475;SDS011;59286;59.274;17.974;2022-12-07T14:51:00;12.60;;;1.80;;
71475;SDS011;59286;59.274;17.974;2022-12-07T14:53:28;7.43;;;2.47;;
71475;SDS011;59286;59.274;17.974;2022-12-07T14:55:58;8.60;;;2.38;;
71475;SDS011;59286;59.274;17.974;2022-12-07T14:58:23;9.38;;;2.60;;
71475;SDS011;59286;59.274;17.974;2022-12-07T15:00:49;7.28;;;2.70;;
71475;SDS011;59286;59.274;17.974;2022-12-07T15:03:14;9.95;;;2.42;;
71475;SDS011;59286;59.274;17.974;2022-12-07T15:05:42;7.65;;;2.70;;
71475;SDS011;59286;59.274;17.974;2022-12-07T15:08:12;6.47;;;2.70;;
71475;SDS011;59286;59.274;17.974;2022-12-07T15:10:38;9.00;;;2.40;;
71475;SDS011;59286;59.274;17.974;2022-12-07T15:13:05;8.43;;;2.53;;
71475;SDS011;59286;59.274;17.974;2022-12-07T15:15:49;8.10;;;2.58;;
71475;SDS011;59286;59.274;17.974;2022-12-07T15:18:16;6.90;;;2.60;;
71475;SDS011;59286;59.274;17.974;2022-12-07T15:20:42;9.95;;;2.92;;
71475;SDS011;59286;59.274;17.974;2022-12-07T15:23:07;8.27;;;2.83;;
71475;SDS011;59286;59.274;17.974;2022-12-07T15:25:33;9.80;;;3.20;;
71475;SDS011;59286;59.274;17.974;2022-12-07T15:27:59;6.70;;;3.10;;
71475;SDS011;59286;59.274;17.974;2022-12-07T15:30:24;8.43;;;2.90;;
71475;SDS011;59286;59.274;17.974;2022-12-07T15:32:50;10.63;;;2.90;;
71475;SDS011;59286;59.274;17.974;2022-12-07T15:35:16;6.75;;;3.30;;
71475;SDS011;59286;59.274;17.974;2022-12-07T15:37:41;12.75;;;2.97;;
71475;SDS011;59286;59.274;17.974;2022-12-07T15:40:07;10.07;;;3.30;;
71475;SDS011;59286;59.274;17.974;2022-12-07T15:42:33;6.78;;;3.40;;
71475;SDS011;59286;59.274;17.974;2022-12-07T15:44:59;7.15;;;2.95;;
71475;SDS011;59286;59.274;17.974;2022-12-07T15:47:31;12.27;;;2.90;;
71475;SDS011;59286;59.274;17.974;2022-12-07T15:49:59;8.07;;;2.63;;
71475;SDS011;59286;59.274;17.974;2022-12-07T15:52:25;7.07;;;2.47;;
71475;SDS011;59286;59.274;17.974;2022-12-07T15:54:50;3.97;;;2.65;;
71475;SDS011;59286;59.274;17.974;2022-12-07T15:57:16;5.22;;;2.45;;
71475;SDS011;59286;59.274;17.974;2022-12-07T15:59:41;9.90;;;2.72;;
71475;SDS011;59286;59.274;17.974;2022-12-07T16:02:08;9.80;;;3.08;;
71475;SDS011;59286;59.274;17.974;2022-12-07T16:04:35;7.38;;;2.88;;
71475;SDS011;59286;59.274;17.974;2022-12-07T16:07:01;7.13;;;2.88;;
71475;SDS011;59286;59.274;17.974;2022-12-07T16:09:27;4.72;;;2.80;;
71475;SDS011;59286;59.274;17.974;2022-12-07T16:11:53;3.90;;;2.60;;
71475;SDS011;59286;59.274;17.974;2022-12-07T16:14:18;11.38;;;3.55;;
71475;SDS011;59286;59.274;17.974;2022-12-07T16:16:43;7.72;;;3.30;;
71475;SDS011;59286;59.274;17.974;2022-12-07T16:19:09;7.28;;;2.88;;
71475;SDS011;59286;59.274;17.974;2022-12-07T16:21:35;6.63;;;2.55;;
71475;SDS011;59286;59.274;17.974;2022-12-07T16:24:01;8.63;;;2.28;;
71475;SDS011;59286;59.274;17.974;2022-12-07T16:26:27;9.00;;;3.58;;
71475;SDS011;59286;59.274;17.974;2022-12-07T16:28:53;9.43;;;2.70;;
71475;SDS011;59286;59.274;17.974;2022-12-07T16:31:22;6.57;;;2.90;;
71475;SDS011;59286;59.274;17.974;2022-12-07T16:33:49;6.22;;;3.20;;
71475;SDS011;59286;59.274;17.974;2022-12-07T16:36:17;6.65;;;2.78;;
71475;SDS011;59286;59.274;17.974;2022-12-07T16:38:43;7.28;;;3.10;;
71475;SDS011;59286;59.274;17.974;2022-12-07T16:41:09;7.85;;;3.45;;
71475;SDS011;59286;59.274;17.974;2022-12-07T16:43:35;4.97;;;2.90;;
71475;SDS011;59286;59.274;17.974;2022-12-07T16:46:01;6.97;;;2.88;;
71475;SDS011;59286;59.274;17.974;2022-12-07T16:48:27;7.10;;;2.95;;
71475;SDS011;59286;59.274;17.974;2022-12-07T16:50:53;7.90;;;2.90;;
71475;SDS011;59286;59.274;17.974;2022-12-07T16:53:19;17.30;;;5.05;;
71475;SDS011;59286;59.274;17.974;2022-12-07T16:55:46;8.25;;;4.07;;
71475;SDS011;59286;59.274;17.974;2022-12-07T16:58:12;9.68;;;3.50;;
71475;SDS011;59286;59.274;17.974;2022-12-07T17:00:38;12.50;;;3.15;;
71475;SDS011;59286;59.274;17.974;2022-12-07T17:03:05;9.05;;;3.28;;
71475;SDS011;59286;59.274;17.974;2022-12-07T17:05:31;10.30;;;3.60;;
71475;SDS011;59286;59.274;17.974;2022-12-07T17:07:57;11.27;;;3.65;;
71475;SDS011;59286;59.274;17.974;2022-12-07T17:10:23;9.68;;;4.65;;
71475;SDS011;59286;59.274;17.974;2022-12-07T17:12:49;8.07;;;3.83;;
71475;SDS011;59286;59.274;17.974;2022-12-07T17:15:15;6.43;;;2.85;;
71475;SDS011;59286;59.274;17.974;2022-12-07T17:17:52;6.25;;;3.20;;
71475;SDS011;59286;59.274;17.974;2022-12-07T17:20:19;6.30;;;3.47;;
71475;SDS011;59286;59.274;17.974;2022-12-07T17:22:47;7.65;;;3.00;;